createdAt,value
2022-09-21T00:00:53.488Z,96.22
2022-09-21T00:03:20.172Z,96.30
2022-09-21T00:05:46.790Z,97.30
2022-09-21T00:08:14.184Z,96.32
2022-09-21T00:10:40.802Z,96.38
2022-09-21T00:13:08.853Z,96.32
2022-09-21T00:15:35.508Z,95.05
2022-09-21T00:18:02.983Z,99.32
2022-09-21T00:20:29.642Z,96.07
2022-09-21T00:22:56.261Z,98.65
2022-09-21T00:25:22.930Z,96.65
2022-09-21T00:27:51.370Z,99.38
2022-09-21T00:30:18.561Z,97.88
2022-09-21T00:32:45.209Z,97.00
2022-09-21T00:35:11.882Z,96.50
2022-09-21T00:37:38.503Z,96.10
2022-09-21T00:40:05.593Z,101.40
2022-09-21T00:42:35.001Z,96.68
2022-09-21T00:45:02.398Z,100.93
2022-09-21T00:47:44.628Z,98.65
2022-09-21T00:50:15.280Z,98.05
2022-09-21T00:52:44.870Z,96.32
2022-09-21T00:55:47.089Z,97.90
2022-09-21T00:58:19.084Z,97.07
2022-09-21T01:00:45.739Z,96.97
2022-09-21T01:03:13.477Z,98.15
2022-09-21T01:05:40.122Z,98.43
2022-09-21T01:08:11.374Z,96.10
2022-09-21T01:11:08.942Z,97.55
2022-09-21T01:13:50.200Z,96.38
2022-09-21T01:16:35.269Z,98.68
2022-09-21T01:19:37.447Z,97.57
2022-09-21T01:22:24.298Z,98.47
2022-09-21T01:25:25.388Z,97.20
2022-09-21T01:28:07.339Z,98.63
2022-09-21T01:30:36.167Z,97.13
2022-09-21T01:33:09.619Z,110.93
2022-09-21T01:35:42.476Z,97.05
2022-09-21T01:38:15.815Z,96.65
2022-09-21T01:40:50.826Z,97.22
2022-09-21T01:43:25.347Z,101.75
2022-09-21T01:45:55.351Z,99.85
2022-09-21T01:48:24.374Z,106.22
2022-09-21T01:50:54.971Z,101.75
2022-09-21T01:53:37.795Z,99.22
2022-09-21T01:56:12.865Z,99.32
2022-09-21T01:59:06.866Z,98.35
2022-09-21T02:01:41.244Z,97.10
2022-09-21T02:04:13.465Z,102.15
2022-09-21T02:06:46.682Z,101.18
2022-09-21T02:09:14.145Z,98.60
2022-09-21T02:11:44.827Z,97.63
2022-09-21T02:14:14.874Z,97.13
2022-09-21T02:17:15.017Z,98.15
2022-09-21T02:19:54.244Z,98.68
2022-09-21T02:22:33.195Z,97.60
2022-09-21T02:25:10.778Z,100.32
2022-09-21T02:27:57.629Z,107.32
2022-09-21T02:30:25.929Z,99.65
2022-09-21T02:33:17.757Z,100.78
2022-09-21T02:36:01.098Z,99.28
2022-09-21T02:38:36.652Z,100.22
2022-09-21T02:41:19.844Z,100.00
2022-09-21T02:43:59.454Z,99.20
2022-09-21T02:46:31.444Z,105.25
2022-09-21T02:49:04.157Z,98.57
2022-09-21T02:51:39.570Z,115.82
2022-09-21T02:54:11.362Z,98.22
2022-09-21T02:56:40.013Z,100.57
2022-09-21T02:59:07.962Z,98.93
2022-09-21T03:01:35.068Z,101.25
2022-09-21T03:04:02.512Z,102.45
2022-09-21T03:06:29.180Z,102.43
2022-09-21T03:08:57.547Z,99.68
2022-09-21T03:11:25.543Z,101.97
2022-09-21T03:13:52.711Z,99.53
2022-09-21T03:16:19.993Z,100.78
2022-09-21T03:18:46.806Z,100.40
2022-09-21T03:21:13.569Z,103.78
2022-09-21T03:23:40.636Z,102.38
2022-09-21T03:26:08.447Z,102.75
2022-09-21T03:28:35.243Z,100.30
2022-09-21T03:31:02.034Z,106.10
2022-09-21T03:33:28.688Z,101.43
2022-09-21T03:35:55.333Z,105.28
2022-09-21T03:38:21.962Z,101.18
2022-09-21T03:40:49.691Z,101.07
2022-09-21T03:43:17.361Z,101.20
2022-09-21T03:45:44.377Z,101.20
2022-09-21T03:48:12.562Z,102.70
2022-09-21T03:50:39.253Z,100.88
2022-09-21T03:53:06.438Z,100.15
2022-09-21T03:55:33.386Z,100.38
2022-09-21T03:58:00.497Z,99.95
2022-09-21T04:00:27.851Z,101.88
2022-09-21T04:02:54.728Z,102.03
2022-09-21T04:05:22.101Z,98.45
2022-09-21T04:07:49.014Z,98.38
2022-09-21T04:10:19.527Z,97.53
2022-09-21T04:12:47.198Z,98.18
2022-09-21T04:15:16.486Z,98.38
2022-09-21T04:17:43.111Z,98.82
2022-09-21T04:20:09.901Z,101.00
2022-09-21T04:22:41.130Z,100.35
2022-09-21T04:25:10.971Z,99.32
2022-09-21T04:27:37.710Z,98.32
2022-09-21T04:30:05.398Z,99.00
2022-09-21T04:32:32.127Z,102.28
2022-09-21T04:34:58.886Z,98.45
2022-09-21T04:37:25.596Z,99.05
2022-09-21T04:39:52.277Z,98.68
2022-09-21T04:42:19.068Z,99.35
2022-09-21T04:44:45.719Z,98.78
2022-09-21T04:47:12.451Z,98.30
2022-09-21T04:49:39.053Z,97.43
2022-09-21T04:52:05.985Z,98.95
2022-09-21T04:54:32.749Z,99.43
2022-09-21T04:56:59.481Z,100.13
2022-09-21T04:59:26.146Z,99.60
2022-09-21T05:01:53.071Z,98.43
2022-09-21T05:04:19.807Z,100.15
2022-09-21T05:06:46.443Z,100.22
2022-09-21T05:09:31.936Z,99.57
2022-09-21T05:11:58.554Z,101.63
2022-09-21T05:14:25.189Z,102.00
2022-09-21T05:16:51.857Z,99.15
2022-09-21T05:19:18.582Z,101.60
2022-09-21T05:21:45.237Z,101.47
2022-09-21T05:24:11.835Z,99.45
2022-09-21T05:26:38.476Z,99.00
2022-09-21T05:29:05.585Z,100.85
2022-09-21T05:31:39.813Z,100.57
2022-09-21T05:34:22.010Z,101.18
2022-09-21T05:36:53.124Z,102.10
2022-09-21T05:39:20.022Z,99.63
2022-09-21T05:41:46.984Z,100.53
2022-09-21T05:44:14.705Z,102.65
2022-09-21T05:46:51.674Z,98.93
2022-09-21T05:49:35.897Z,98.93
2022-09-21T05:52:21.201Z,101.30
2022-09-21T05:54:53.711Z,100.22
2022-09-21T05:57:36.823Z,98.57
2022-09-21T06:00:19.921Z,99.97
2022-09-21T06:03:17.940Z,98.32
2022-09-21T06:05:45.286Z,99.47
2022-09-21T06:08:11.918Z,98.47
2022-09-21T06:10:38.571Z,98.00
2022-09-21T06:13:05.383Z,99.80
2022-09-21T06:15:38.247Z,99.22
2022-09-21T06:18:08.792Z,98.78
2022-09-21T06:20:35.825Z,102.05
2022-09-21T06:23:03.711Z,99.80
2022-09-21T06:25:30.493Z,99.88
2022-09-21T06:28:10.048Z,102.07
2022-09-21T06:30:37.768Z,99.57
2022-09-21T06:33:06.086Z,97.60
2022-09-21T06:35:34.095Z,100.57
2022-09-21T06:38:02.267Z,98.00
2022-09-21T06:40:29.891Z,102.55
2022-09-21T06:43:00.748Z,100.53
2022-09-21T06:45:29.503Z,99.68
2022-09-21T06:47:56.577Z,106.93
2022-09-21T06:50:23.539Z,99.03
2022-09-21T06:52:50.197Z,101.13
2022-09-21T06:55:17.222Z,101.70
2022-09-21T06:57:43.955Z,100.13
2022-09-21T07:00:12.407Z,99.60
2022-09-21T07:02:42.590Z,100.38
2022-09-21T07:05:09.301Z,98.82
2022-09-21T07:07:36.420Z,99.32
2022-09-21T07:10:05.841Z,100.22
2022-09-21T07:12:35.179Z,99.78
2022-09-21T07:15:03.465Z,101.95
2022-09-21T07:17:35.102Z,98.05
2022-09-21T07:20:02.329Z,103.72
2022-09-21T07:22:30.014Z,98.47
2022-09-21T07:24:58.025Z,100.53
2022-09-21T07:27:26.006Z,105.47
2022-09-21T07:29:52.860Z,99.03
2022-09-21T07:32:20.094Z,100.20
2022-09-21T07:34:46.746Z,100.35
2022-09-21T07:37:14.430Z,96.80
2022-09-21T07:39:41.262Z,95.25
2022-09-21T07:42:08.094Z,94.88
2022-09-21T07:44:34.781Z,93.55
2022-09-21T07:47:03.262Z,94.22
2022-09-21T07:49:29.950Z,91.07
2022-09-21T07:52:01.390Z,93.10
2022-09-21T07:54:30.415Z,94.07
2022-09-21T07:57:15.655Z,89.97
2022-09-21T07:59:42.331Z,93.57
2022-09-21T08:02:09.027Z,88.77
2022-09-21T08:04:35.744Z,89.00
2022-09-21T08:07:02.399Z,87.20
2022-09-21T08:09:29.034Z,85.93
2022-09-21T08:11:55.721Z,84.27
2022-09-21T08:14:26.351Z,86.40
2022-09-21T08:16:53.682Z,84.20
2022-09-21T08:19:21.356Z,81.70
2022-09-21T08:21:56.258Z,82.17
2022-09-21T08:24:25.834Z,82.63
2022-09-21T08:26:52.867Z,80.90
2022-09-21T08:29:19.838Z,80.97
2022-09-21T08:31:46.797Z,80.10
2022-09-21T08:34:14.189Z,79.17
2022-09-21T08:36:41.019Z,79.20
2022-09-21T08:39:10.543Z,78.27
2022-09-21T08:41:40.557Z,83.57
2022-09-21T08:44:19.460Z,77.47
2022-09-21T08:46:52.931Z,77.90
2022-09-21T08:49:23.085Z,77.57
2022-09-21T08:52:04.664Z,77.43
2022-09-21T08:54:48.130Z,76.50
2022-09-21T08:57:16.235Z,77.40
2022-09-21T08:59:49.046Z,79.13
2022-09-21T09:02:42.947Z,76.20
2022-09-21T09:05:48.526Z,76.10
2022-09-21T09:08:24.282Z,75.90
2022-09-21T09:11:06.035Z,75.53
2022-09-21T09:13:53.753Z,76.20
2022-09-21T09:16:38.510Z,75.50
2022-09-21T09:19:36.675Z,74.57
2022-09-21T09:22:06.761Z,74.37
2022-09-21T09:24:48.446Z,74.27
2022-09-21T09:27:27.949Z,77.33
2022-09-21T09:30:16.434Z,74.27
2022-09-21T09:32:55.110Z,75.60
2022-09-21T09:35:44.697Z,74.77
2022-09-21T09:38:33.218Z,75.67
2022-09-21T09:41:11.849Z,75.97
2022-09-21T09:43:50.525Z,74.77
2022-09-21T09:46:59.215Z,75.63
2022-09-21T09:50:00.505Z,75.90
2022-09-21T09:52:27.769Z,75.83
2022-09-21T09:54:54.726Z,76.27
2022-09-21T09:57:29.411Z,76.83
2022-09-21T10:00:09.470Z,78.40
2022-09-21T10:02:52.711Z,77.13
2022-09-21T10:05:38.230Z,76.37
2022-09-21T10:08:04.863Z,78.10
2022-09-21T10:10:34.439Z,78.10
2022-09-21T10:13:10.940Z,77.20
2022-09-21T10:15:52.601Z,77.30
2022-09-21T10:18:38.777Z,79.67
2022-09-21T10:21:17.386Z,78.87
2022-09-21T10:23:49.561Z,79.27
2022-09-21T10:26:18.240Z,82.53
2022-09-21T10:29:16.963Z,78.10
2022-09-21T10:32:07.417Z,80.50
2022-09-21T10:34:35.841Z,78.97
2022-09-21T10:37:23.389Z,79.57
2022-09-21T10:39:50.039Z,82.07
2022-09-21T10:42:19.101Z,82.57
2022-09-21T10:45:03.718Z,79.03
2022-09-21T10:47:38.958Z,80.87
2022-09-21T10:50:25.290Z,81.60
2022-09-21T10:52:57.458Z,83.87
2022-09-21T10:55:25.326Z,81.97
2022-09-21T10:57:53.189Z,81.10
2022-09-21T11:00:25.764Z,80.97
2022-09-21T11:02:54.897Z,81.50
2022-09-21T11:05:36.765Z,82.27
2022-09-21T11:08:14.544Z,84.40
2022-09-21T11:11:05.106Z,81.20
2022-09-21T11:13:40.194Z,83.87
2022-09-21T11:16:41.168Z,83.37
2022-09-21T11:19:35.907Z,80.77
2022-09-21T11:22:22.597Z,83.20
2022-09-21T11:24:52.224Z,81.87
2022-09-21T11:27:24.603Z,81.70
2022-09-21T11:30:07.222Z,82.07
2022-09-21T11:32:40.441Z,81.97
2022-09-21T11:35:10.126Z,84.37
2022-09-21T11:38:09.948Z,81.63
2022-09-21T11:41:01.783Z,82.97
2022-09-21T11:43:51.686Z,82.67
2022-09-21T11:46:42.135Z,86.60
2022-09-21T11:49:18.116Z,81.07
2022-09-21T11:52:24.541Z,83.90
2022-09-21T11:55:25.464Z,81.20
2022-09-21T11:58:13.820Z,82.87
2022-09-21T12:01:06.744Z,82.27
2022-09-21T12:04:03.461Z,82.77
2022-09-21T12:06:51.661Z,82.40
2022-09-21T12:09:46.423Z,82.37
2022-09-21T12:12:26.309Z,82.27
2022-09-21T12:15:30.239Z,82.50
2022-09-21T12:18:29.010Z,83.60
2022-09-21T12:21:18.359Z,83.87
2022-09-21T12:23:50.682Z,83.77
2022-09-21T12:26:24.210Z,82.10
2022-09-21T12:29:01.908Z,85.53
2022-09-21T12:31:59.029Z,82.43
2022-09-21T12:34:32.906Z,83.23
2022-09-21T12:37:35.622Z,84.43
2022-09-21T12:40:26.756Z,84.13
2022-09-21T12:43:02.444Z,82.70
2022-09-21T12:45:51.034Z,82.67
2022-09-21T12:48:34.922Z,83.47
2022-09-21T12:51:28.512Z,84.10
2022-09-21T12:53:58.863Z,82.57
2022-09-21T12:56:32.399Z,81.53
2022-09-21T12:59:28.549Z,86.03
2022-09-21T13:02:13.042Z,83.20
2022-09-21T13:04:58.238Z,85.57
2022-09-21T13:07:38.277Z,83.97
2022-09-21T13:10:18.786Z,83.87
2022-09-21T13:12:47.900Z,83.90
2022-09-21T13:15:22.258Z,83.70
2022-09-21T13:18:01.986Z,83.87
2022-09-21T13:20:36.047Z,84.83
2022-09-21T13:23:03.474Z,85.47
2022-09-21T13:25:34.697Z,89.05
2022-09-21T13:28:13.567Z,85.97
2022-09-21T13:31:18.505Z,89.25
2022-09-21T13:34:19.512Z,86.75
2022-09-21T13:37:11.247Z,98.35
2022-09-21T13:40:02.147Z,85.47
2022-09-21T13:42:34.843Z,85.22
2022-09-21T13:45:14.737Z,85.72
2022-09-21T13:47:47.085Z,87.35
2022-09-21T13:50:26.864Z,86.88
2022-09-21T13:52:59.136Z,86.90
2022-09-21T13:55:35.698Z,87.82
2022-09-21T13:58:23.657Z,86.95
2022-09-21T14:00:50.231Z,86.03
2022-09-21T14:03:37.365Z,87.25
2022-09-21T14:06:13.665Z,86.00
2022-09-21T14:08:51.236Z,86.57
2022-09-21T14:11:31.045Z,87.68
2022-09-21T14:14:09.472Z,86.07
2022-09-21T14:16:39.918Z,86.78
2022-09-21T14:19:18.387Z,86.47
2022-09-21T14:22:03.828Z,88.83
2022-09-21T14:24:46.429Z,86.40
2022-09-21T14:27:45.462Z,85.67
2022-09-21T14:30:21.696Z,86.03
2022-09-21T14:33:12.200Z,86.37
2022-09-21T14:35:43.558Z,88.30
2022-09-21T14:38:22.092Z,86.67
2022-09-21T14:40:51.543Z,86.20
2022-09-21T14:43:25.030Z,86.13
2022-09-21T14:45:59.875Z,86.17
2022-09-21T14:48:45.403Z,87.78
2022-09-21T14:51:38.216Z,87.05
2022-09-21T14:54:33.861Z,87.03
2022-09-21T14:57:35.267Z,87.63
2022-09-21T15:00:26.516Z,88.63
2022-09-21T15:03:19.568Z,88.07
2022-09-21T15:06:43.314Z,88.57
2022-09-21T15:09:53.470Z,87.90
2022-09-21T15:12:50.394Z,89.40
2022-09-21T15:15:42.438Z,93.82
2022-09-21T15:18:21.458Z,88.57
2022-09-21T15:21:01.136Z,87.93
2022-09-21T15:23:50.525Z,87.82
2022-09-21T15:26:29.135Z,87.20
2022-09-21T15:29:09.592Z,87.28
2022-09-21T15:31:41.427Z,87.75
2022-09-21T15:34:11.053Z,86.90
2022-09-21T15:36:40.937Z,94.43
2022-09-21T15:39:20.492Z,87.72
2022-09-21T15:41:49.871Z,86.78
2022-09-21T15:44:33.065Z,87.28
2022-09-21T15:47:03.214Z,88.55
2022-09-21T15:49:30.458Z,87.88
2022-09-21T15:52:05.205Z,87.22
2022-09-21T15:54:34.734Z,89.85
2022-09-21T15:57:08.428Z,87.93
2022-09-21T15:59:35.767Z,87.95
2022-09-21T16:02:12.241Z,103.07
2022-09-21T16:04:49.313Z,89.88
2022-09-21T16:07:32.827Z,88.80
2022-09-21T16:09:59.851Z,89.22
2022-09-21T16:12:26.443Z,90.35
2022-09-21T16:14:54.065Z,89.47
2022-09-21T16:17:27.266Z,92.88
2022-09-21T16:19:53.906Z,91.25
2022-09-21T16:22:35.800Z,90.45
2022-09-21T16:25:13.139Z,89.53
2022-09-21T16:27:54.343Z,90.72
2022-09-21T16:30:40.137Z,90.03
2022-09-21T16:33:37.847Z,90.65
2022-09-21T16:36:25.785Z,90.07
2022-09-21T16:38:56.275Z,89.68
2022-09-21T16:41:25.906Z,90.60
2022-09-21T16:43:57.302Z,90.95
2022-09-21T16:46:26.494Z,93.93
2022-09-21T16:48:54.968Z,90.75
2022-09-21T16:51:25.625Z,90.68
2022-09-21T16:53:52.276Z,90.57
2022-09-21T16:56:19.320Z,93.18
2022-09-21T16:58:46.196Z,93.88
2022-09-21T17:01:15.748Z,92.22
2022-09-21T17:03:42.772Z,93.32
2022-09-21T17:06:18.011Z,91.53
2022-09-21T17:08:49.065Z,98.45
2022-09-21T17:11:22.694Z,92.85
2022-09-21T17:13:50.621Z,91.25
2022-09-21T17:16:19.347Z,93.10
2022-09-21T17:18:49.476Z,92.45
2022-09-21T17:21:16.667Z,93.47
2022-09-21T17:23:43.432Z,91.90
2022-09-21T17:26:17.593Z,96.35
2022-09-21T17:28:44.602Z,92.30
2022-09-21T17:31:20.956Z,93.90
2022-09-21T17:33:50.325Z,93.63
2022-09-21T17:36:18.443Z,92.40
2022-09-21T17:38:45.394Z,95.57
2022-09-21T17:41:39.926Z,91.57
2022-09-21T17:44:17.453Z,93.13
2022-09-21T17:47:03.215Z,95.38
2022-09-21T17:49:29.998Z,94.55
2022-09-21T17:52:15.590Z,93.57
2022-09-21T17:54:42.371Z,93.32
2022-09-21T17:57:40.167Z,93.40
2022-09-21T18:00:47.228Z,93.93
2022-09-21T18:03:28.946Z,93.68
2022-09-21T18:06:00.498Z,93.25
2022-09-21T18:08:33.353Z,94.50
2022-09-21T18:11:06.559Z,94.03
2022-09-21T18:14:00.545Z,93.22
2022-09-21T18:16:37.025Z,94.70
2022-09-21T18:19:21.199Z,108.28
2022-09-21T18:21:52.495Z,97.53
2022-09-21T18:24:19.186Z,94.78
2022-09-21T18:26:46.613Z,95.20
2022-09-21T18:29:45.696Z,94.68
2022-09-21T18:32:36.693Z,101.43
2022-09-21T18:35:18.253Z,99.70
2022-09-21T18:38:12.963Z,94.13
2022-09-21T18:41:04.090Z,95.28
2022-09-21T18:43:53.953Z,98.95
2022-09-21T18:46:40.631Z,94.80
2022-09-21T18:49:36.549Z,93.18
2022-09-21T18:52:37.409Z,95.00
2022-09-21T18:55:16.325Z,96.88
2022-09-21T18:57:43.302Z,94.20
2022-09-21T19:00:12.414Z,93.68
2022-09-21T19:02:53.552Z,94.95
2022-09-21T19:05:26.210Z,94.00
2022-09-21T19:08:18.266Z,93.68
2022-09-21T19:10:57.237Z,94.15
2022-09-21T19:13:32.477Z,94.55
2022-09-21T19:16:11.455Z,98.22
2022-09-21T19:18:48.815Z,94.65
2022-09-21T19:21:26.667Z,94.65
2022-09-21T19:24:15.595Z,94.50
2022-09-21T19:26:49.106Z,97.85
2022-09-21T19:30:03.691Z,93.93
2022-09-21T19:32:36.208Z,94.65
2022-09-21T19:35:14.005Z,94.43
2022-09-21T19:37:40.825Z,101.13
2022-09-21T19:40:08.107Z,96.25
2022-09-21T19:42:59.313Z,94.97
2022-09-21T19:46:05.015Z,95.15
2022-09-21T19:48:43.573Z,95.53
2022-09-21T19:51:27.854Z,96.22
2022-09-21T19:54:16.705Z,95.13
2022-09-21T19:57:08.920Z,96.13
2022-09-21T19:59:44.788Z,96.63
2022-09-21T20:02:23.541Z,99.88
2022-09-21T20:04:57.255Z,96.57
2022-09-21T20:07:42.571Z,95.47
2022-09-21T20:10:28.742Z,95.00
2022-09-21T20:13:12.505Z,94.35
2022-09-21T20:15:47.120Z,95.53
2022-09-21T20:18:48.880Z,95.18
2022-09-21T20:21:21.008Z,96.07
2022-09-21T20:23:52.104Z,99.82
2022-09-21T20:26:25.032Z,95.32
2022-09-21T20:28:52.607Z,96.10
2022-09-21T20:31:24.567Z,99.22
2022-09-21T20:33:51.680Z,95.75
2022-09-21T20:36:18.303Z,95.18
2022-09-21T20:38:45.061Z,96.07
2022-09-21T20:41:13.385Z,104.65
2022-09-21T20:43:40.185Z,95.25
2022-09-21T20:46:06.944Z,102.28
2022-09-21T20:48:33.605Z,95.22
2022-09-21T20:51:01.910Z,95.72
2022-09-21T20:53:28.531Z,95.75
2022-09-21T20:55:57.910Z,96.18
2022-09-21T20:58:25.078Z,98.40
2022-09-21T21:00:57.935Z,97.80
2022-09-21T21:03:25.539Z,95.88
2022-09-21T21:05:52.169Z,115.13
2022-09-21T21:08:18.868Z,100.50
2022-09-21T21:10:46.790Z,95.50
2022-09-21T21:13:13.513Z,98.38
2022-09-21T21:15:40.217Z,96.43
2022-09-21T21:18:10.363Z,96.80
2022-09-21T21:20:37.765Z,96.50
2022-09-21T21:23:07.942Z,97.53
2022-09-21T21:25:35.069Z,95.30
2022-09-21T21:28:02.491Z,95.30
2022-09-21T21:30:29.386Z,96.75
2022-09-21T21:32:56.514Z,98.50
2022-09-21T21:35:23.294Z,94.63
2022-09-21T21:37:49.908Z,96.47
2022-09-21T21:40:17.013Z,98.45
2022-09-21T21:42:43.663Z,96.85
2022-09-21T21:45:10.845Z,96.40
2022-09-21T21:47:40.168Z,97.30
2022-09-21T21:50:08.337Z,95.75
2022-09-21T21:52:34.964Z,96.93
2022-09-21T21:55:02.326Z,97.10
2022-09-21T21:57:29.033Z,95.82
2022-09-21T21:59:55.639Z,96.93
2022-09-21T22:02:22.335Z,95.40
2022-09-21T22:04:49.039Z,99.72
2022-09-21T22:07:15.675Z,96.43
2022-09-21T22:09:42.272Z,95.97
2022-09-21T22:12:10.106Z,96.80
2022-09-21T22:14:36.762Z,96.63
2022-09-21T22:17:03.501Z,98.90
2022-09-21T22:19:30.097Z,96.93
2022-09-21T22:21:57.658Z,96.38
2022-09-21T22:24:24.557Z,97.15
2022-09-21T22:26:51.403Z,96.65
2022-09-21T22:29:18.048Z,97.78
2022-09-21T22:31:48.191Z,100.65
2022-09-21T22:34:16.032Z,97.63
2022-09-21T22:36:45.609Z,96.45
2022-09-21T22:39:12.857Z,97.85
2022-09-21T22:41:41.466Z,98.38
2022-09-21T22:44:08.670Z,98.38
2022-09-21T22:46:36.251Z,96.60
2022-09-21T22:49:03.170Z,99.90
2022-09-21T22:51:30.433Z,95.57
2022-09-21T22:53:57.854Z,98.18
2022-09-21T22:56:26.985Z,99.40
2022-09-21T22:58:56.355Z,99.78
2022-09-21T23:01:33.534Z,96.82
2022-09-21T23:04:02.875Z,96.57
2022-09-21T23:06:33.312Z,97.35
2022-09-21T23:09:02.107Z,98.00
2022-09-21T23:11:37.193Z,97.00
2022-09-21T23:14:04.572Z,97.05
2022-09-21T23:16:31.607Z,97.13
2022-09-21T23:18:59.034Z,98.72
2022-09-21T23:21:27.679Z,97.38
2022-09-21T23:23:56.770Z,101.65
2022-09-21T23:26:25.986Z,97.93
2022-09-21T23:28:55.418Z,96.82
2022-09-21T23:31:22.654Z,97.55
2022-09-21T23:33:52.168Z,100.90
2022-09-21T23:36:22.032Z,98.60
2022-09-21T23:38:49.951Z,97.72
2022-09-21T23:41:28.207Z,96.78
2022-09-21T23:43:55.563Z,97.47
2022-09-21T23:46:27.714Z,97.45
2022-09-21T23:48:54.616Z,104.80
2022-09-21T23:51:21.604Z,97.65
2022-09-21T23:53:48.404Z,97.45
2022-09-21T23:56:17.457Z,97.18
2022-09-21T23:58:44.132Z,97.30
